Time;durP1;ratioP1;P1;durP2;ratioP2;P2;SDS_P1;SDS_P2;PMS_P1;PMS_P2;Temp;Humidity;BMP_temperature;BMP_pressure;BME280_temperature;BME280_humidity;BME280_pressure;Samples;Min_cycle;Max_cycle;Signal;HPM_P1;HPM_P2
2023/03/12 00:00:14;;;;;;;;;9.75;8.25;;;;;;;;5063823;28;8806;-71
2023/03/12 00:02:39;;;;;;;;;8.75;7.00;;;;;;;;5065615;28;8779;-72
2023/03/12 00:05:08;;;;;;;;;8.00;7.00;;;;;;;;5065088;28;10057;-72
2023/03/12 00:07:35;;;;;;;;;8.00;8.00;;;;;;;;5069734;28;8798;-72
2023/03/12 00:10:02;;;;;;;;;8.00;8.00;;;;;;;;5071173;28;10286;-72
2023/03/12 00:12:27;;;;;;;;;9.75;9.75;;;;;;;;5070449;28;10059;-72
2023/03/12 00:14:52;;;;;;;;;11.25;8.00;;;;;;;;5061839;28;11032;-72
2023/03/12 00:17:18;;;;;;;;;11.75;11.50;;;;;;;;5069965;28;8830;-72
2023/03/12 00:19:44;;;;;;;;;7.50;7.50;;;;;;;;5067217;28;8818;-72
2023/03/12 00:22:09;;;;;;;;;8.50;8.00;;;;;;;;5069862;28;8798;-72
2023/03/12 00:24:35;;;;;;;;;9.00;9.00;;;;;;;;5066619;28;10204;-72
2023/03/12 00:27:00;;;;;;;;;9.00;8.00;;;;;;;;5069116;28;9597;-72
2023/03/12 00:29:25;;;;;;;;;9.00;9.00;;;;;;;;5069796;28;8912;-72
2023/03/12 00:31:50;;;;;;;;;15.25;12.25;;;;;;;;5070164;28;8778;-72
2023/03/12 00:34:16;;;;;;;;;11.00;10.25;;;;;;;;5069151;28;8818;-72
2023/03/12 00:36:41;;;;;;;;;13.50;11.75;;;;;;;;5069787;28;8794;-72
2023/03/12 00:39:06;;;;;;;;;12.25;11.75;;;;;;;;5065368;28;8844;-72
2023/03/12 00:41:31;;;;;;;;;12.25;11.50;;;;;;;;5066060;28;8885;-71
2023/03/12 00:43:57;;;;;;;;;13.75;11.25;;;;;;;;5069862;28;8912;-72
2023/03/12 00:46:22;;;;;;;;;11.25;9.25;;;;;;;;5066015;28;8806;-71
2023/03/12 00:48:48;;;;;;;;;9.75;9.75;;;;;;;;5067125;28;8884;-71
2023/03/12 00:51:13;;;;;;;;;4.75;3.75;;;;;;;;5068266;28;8921;-72
2023/03/12 00:53:38;;;;;;;;;7.50;6.50;;;;;;;;5073756;28;8814;-71
2023/03/12 00:56:04;;;;;;;;;10.00;8.50;;;;;;;;5073641;28;8782;-71
2023/03/12 00:58:29;;;;;;;;;9.75;8.50;;;;;;;;5073564;28;8814;-72
2023/03/12 01:00:54;;;;;;;;;8.00;7.00;;;;;;;;5073460;28;8798;-72
2023/03/12 01:03:19;;;;;;;;;9.50;6.50;;;;;;;;5073932;28;8821;-72
2023/03/12 01:05:45;;;;;;;;;6.25;6.25;;;;;;;;5085401;28;8837;-72
2023/03/12 01:08:10;;;;;;;;;11.50;10.50;;;;;;;;5072341;28;8809;-72
2023/03/12 01:10:39;;;;;;;;;11.00;8.25;;;;;;;;5073142;28;8931;-72
2023/03/12 01:13:04;;;;;;;;;8.50;8.50;;;;;;;;5073469;28;8774;-72
2023/03/12 01:15:30;;;;;;;;;10.75;9.00;;;;;;;;5073297;28;10054;-72
2023/03/12 01:17:55;;;;;;;;;13.00;9.75;;;;;;;;5073690;28;9564;-71
2023/03/12 01:20:21;;;;;;;;;10.75;10.50;;;;;;;;5073185;28;8950;-70
2023/03/12 01:22:47;;;;;;;;;10.25;7.75;;;;;;;;5071829;28;8790;-72
2023/03/12 01:25:12;;;;;;;;;8.25;7.75;;;;;;;;5073032;28;10160;-72
2023/03/12 01:27:37;;;;;;;;;8.00;7.25;;;;;;;;5073486;28;8821;-73
2023/03/12 01:30:03;;;;;;;;;16.50;11.75;;;;;;;;5073097;28;8794;-72
2023/03/12 01:32:29;;;;;;;;;2.25;2.00;;;;;;;;5072000;28;8912;-72
2023/03/12 01:34:54;;;;;;;;;10.00;8.75;;;;;;;;5072998;28;9880;-72
2023/03/12 01:37:20;;;;;;;;;12.50;9.25;;;;;;;;5072997;28;8928;-72
2023/03/12 01:39:45;;;;;;;;;7.50;7.50;;;;;;;;5072904;28;8912;-72
2023/03/12 01:42:10;;;;;;;;;7.50;7.50;;;;;;;;5064214;28;9559;-72
2023/03/12 01:44:52;;;;;;;;;9.00;8.00;;;;;;;;5069921;28;8828;-72
2023/03/12 01:47:17;;;;;;;;;9.75;7.00;;;;;;;;5072784;28;8804;-72
2023/03/12 01:49:43;;;;;;;;;10.75;6.75;;;;;;;;5065212;28;9970;-71
2023/03/12 01:52:35;;;;;;;;;8.75;7.00;;;;;;;;5066284;28;8789;-71
2023/03/12 01:55:08;;;;;;;;;8.75;6.75;;;;;;;;5066409;28;10787;-71
2023/03/12 01:57:35;;;;;;;;;8.75;6.00;;;;;;;;5084995;28;10165;-71
2023/03/12 02:00:08;;;;;;;;;8.25;8.00;;;;;;;;5093215;28;9973;-71
2023/03/12 02:02:34;;;;;;;;;6.75;5.50;;;;;;;;5092254;28;9953;-72
2023/03/12 02:05:05;;;;;;;;;8.25;7.00;;;;;;;;5083206;28;9903;-71
2023/03/12 02:07:32;;;;;;;;;8.75;6.00;;;;;;;;5071557;28;8786;-71
2023/03/12 02:09:57;;;;;;;;;8.00;6.00;;;;;;;;5072987;28;9945;-70
2023/03/12 02:12:23;;;;;;;;;7.00;6.00;;;;;;;;5071771;28;9920;-71
2023/03/12 02:14:48;;;;;;;;;6.50;6.50;;;;;;;;5071542;28;8806;-71
2023/03/12 02:17:13;;;;;;;;;12.00;6.75;;;;;;;;5072705;28;8806;-71
2023/03/12 02:20:11;;;;;;;;;8.00;6.75;;;;;;;;5072281;28;8822;-72
2023/03/12 02:22:37;;;;;;;;;8.00;4.75;;;;;;;;5010502;28;8785;-72
2023/03/12 02:25:11;;;;;;;;;3.00;3.00;;;;;;;;5009311;28;10549;-72
2023/03/12 02:27:37;;;;;;;;;7.25;4.75;;;;;;;;5007292;28;9731;-71
2023/03/12 02:30:03;;;;;;;;;6.00;5.00;;;;;;;;5008590;28;9897;-72
2023/03/12 02:32:34;;;;;;;;;7.75;6.25;;;;;;;;5009181;28;9992;-72
2023/03/12 02:34:59;;;;;;;;;7.50;5.50;;;;;;;;5004023;28;10342;-72
2023/03/12 02:37:24;;;;;;;;;6.00;6.00;;;;;;;;5008756;28;9916;-73
2023/03/12 02:40:02;;;;;;;;;5.50;5.50;;;;;;;;5008965;28;8832;-72
2023/03/12 02:42:27;;;;;;;;;11.50;7.50;;;;;;;;5009250;28;8830;-73
2023/03/12 02:44:53;;;;;;;;;5.00;5.00;;;;;;;;5008736;28;10073;-73
2023/03/12 02:47:18;;;;;;;;;13.25;9.25;;;;;;;;4992610;28;8950;-73
2023/03/12 02:49:43;;;;;;;;;9.25;7.00;;;;;;;;5008738;28;8813;-72
2023/03/12 02:52:09;;;;;;;;;9.75;8.00;;;;;;;;5008480;28;8804;-73
2023/03/12 02:54:34;;;;;;;;;11.00;7.00;;;;;;;;5008836;28;8811;-73
2023/03/12 02:57:00;;;;;;;;;11.25;7.75;;;;;;;;4992458;28;9841;-72
2023/03/12 02:59:25;;;;;;;;;7.50;4.50;;;;;;;;5070327;28;8797;-72
2023/03/12 03:01:54;;;;;;;;;5.75;5.00;;;;;;;;5070982;28;8825;-73
2023/03/12 03:04:20;;;;;;;;;5.50;5.00;;;;;;;;5069403;28;8818;-73
2023/03/12 03:06:47;;;;;;;;;7.25;7.00;;;;;;;;5071659;28;9915;-73
2023/03/12 03:09:12;;;;;;;;;7.50;6.00;;;;;;;;5072264;28;8875;-73
2023/03/12 03:11:37;;;;;;;;;7.00;5.00;;;;;;;;5072353;28;9846;-73
2023/03/12 03:14:03;;;;;;;;;4.00;4.00;;;;;;;;5071622;28;8893;-72
2023/03/12 03:16:28;;;;;;;;;3.25;2.00;;;;;;;;5067425;28;8800;-72
2023/03/12 03:18:53;;;;;;;;;8.25;6.25;;;;;;;;5051052;28;8820;-73
2023/03/12 03:21:19;;;;;;;;;7.50;7.25;;;;;;;;5070380;28;8887;-73
2023/03/12 03:23:45;;;;;;;;;11.50;8.25;;;;;;;;5071626;28;8816;-73
2023/03/12 03:26:10;;;;;;;;;7.75;5.50;;;;;;;;5072299;28;8825;-71
2023/03/12 03:28:35;;;;;;;;;6.50;5.00;;;;;;;;5072277;28;9711;-72
2023/03/12 03:31:01;;;;;;;;;4.50;4.50;;;;;;;;5072701;28;8817;-72
2023/03/12 03:33:31;;;;;;;;;4.00;3.00;;;;;;;;5073020;28;9626;-73
2023/03/12 03:35:58;;;;;;;;;8.25;7.00;;;;;;;;5071980;28;8906;-73
2023/03/12 03:38:24;;;;;;;;;10.00;5.50;;;;;;;;5071633;28;9893;-73
2023/03/12 03:40:49;;;;;;;;;7.00;4.75;;;;;;;;5071747;28;10667;-73
2023/03/12 03:43:14;;;;;;;;;8.25;4.50;;;;;;;;5071804;28;8805;-73
2023/03/12 03:45:39;;;;;;;;;6.75;5.75;;;;;;;;5071597;28;8810;-73
2023/03/12 03:48:05;;;;;;;;;6.50;4.75;;;;;;;;5071770;28;9549;-73
2023/03/12 03:50:30;;;;;;;;;7.00;6.00;;;;;;;;5071451;28;8798;-72
2023/03/12 03:52:55;;;;;;;;;7.00;6.00;;;;;;;;5071702;28;8800;-73
2023/03/12 03:55:21;;;;;;;;;5.00;4.50;;;;;;;;5071116;28;8798;-72
2023/03/12 03:57:47;;;;;;;;;5.00;3.50;;;;;;;;5071417;28;8786;-73
2023/03/12 04:00:14;;;;;;;;;9.25;5.75;;;;;;;;5071206;28;9679;-72
2023/03/12 04:02:40;;;;;;;;;6.25;5.75;;;;;;;;5071519;28;9858;-72
2023/03/12 04:05:05;;;;;;;;;4.75;4.25;;;;;;;;5071125;28;9868;-72
2023/03/12 04:07:31;;;;;;;;;8.75;5.00;;;;;;;;5071344;28;8814;-72
2023/03/12 04:09:57;;;;;;;;;5.50;3.75;;;;;;;;5071426;28;8901;-72
2023/03/12 04:12:24;;;;;;;;;6.00;3.00;;;;;;;;5071175;28;8790;-72
2023/03/12 04:14:50;;;;;;;;;5.25;5.25;;;;;;;;5071298;28;9807;-72
2023/03/12 04:17:15;;;;;;;;;4.75;4.50;;;;;;;;5071373;28;9889;-72
2023/03/12 04:19:40;;;;;;;;;7.25;4.25;;;;;;;;5070709;28;8821;-72
2023/03/12 04:22:05;;;;;;;;;5.00;3.50;;;;;;;;5070868;28;8794;-72
2023/03/12 04:24:30;;;;;;;;;5.50;3.25;;;;;;;;5071091;28;8894;-72
2023/03/12 04:26:56;;;;;;;;;4.75;3.00;;;;;;;;5070136;28;8798;-72
2023/03/12 04:29:21;;;;;;;;;4.75;3.50;;;;;;;;5071239;28;8798;-72
2023/03/12 04:31:46;;;;;;;;;7.50;3.50;;;;;;;;5069897;28;8786;-72
2023/03/12 04:34:12;;;;;;;;;6.25;6.00;;;;;;;;5071122;28;8770;-72
2023/03/12 04:36:37;;;;;;;;;6.50;3.50;;;;;;;;5070986;28;8817;-72
2023/03/12 04:39:06;;;;;;;;;11.25;4.75;;;;;;;;5070824;28;8790;-72
2023/03/12 04:41:31;;;;;;;;;4.75;4.00;;;;;;;;5071160;28;8885;-72
2023/03/12 04:43:56;;;;;;;;;9.25;5.00;;;;;;;;5070969;28;9974;-72
2023/03/12 04:46:21;;;;;;;;;5.50;2.75;;;;;;;;5070843;28;8930;-72
2023/03/12 04:48:47;;;;;;;;;4.75;4.25;;;;;;;;5070704;28;8777;-72
2023/03/12 04:51:12;;;;;;;;;9.75;5.00;;;;;;;;5070992;28;8798;-72
2023/03/12 04:53:39;;;;;;;;;6.50;5.00;;;;;;;;5071298;28;8773;-72
2023/03/12 04:56:04;;;;;;;;;6.75;5.00;;;;;;;;5069407;28;8881;-72
2023/03/12 04:58:29;;;;;;;;;7.75;3.75;;;;;;;;5070846;28;9996;-72
2023/03/12 05:00:55;;;;;;;;;4.75;3.50;;;;;;;;5070842;28;8798;-72
2023/03/12 05:03:20;;;;;;;;;7.00;3.50;;;;;;;;5070503;28;8816;-72
2023/03/12 05:05:45;;;;;;;;;6.25;6.25;;;;;;;;5070223;28;8809;-72
2023/03/12 05:08:10;;;;;;;;;9.75;6.75;;;;;;;;5070361;28;8864;-72
2023/03/12 05:10:35;;;;;;;;;4.25;3.00;;;;;;;;5070561;28;8802;-72
2023/03/12 05:13:01;;;;;;;;;6.00;5.00;;;;;;;;5070523;28;8770;-72
2023/03/12 05:15:26;;;;;;;;;3.50;2.50;;;;;;;;5070647;28;9537;-72
2023/03/12 05:17:51;;;;;;;;;6.00;4.00;;;;;;;;5070276;28;8820;-72
2023/03/12 05:20:17;;;;;;;;;3.25;3.00;;;;;;;;5069970;28;8903;-72
2023/03/12 05:22:42;;;;;;;;;8.75;5.50;;;;;;;;5070646;28;8798;-72
2023/03/12 05:25:07;;;;;;;;;6.00;3.00;;;;;;;;5070635;28;8790;-72
2023/03/12 05:27:34;;;;;;;;;9.25;7.00;;;;;;;;5069997;28;8940;-72
2023/03/12 05:29:59;;;;;;;;;6.25;2.75;;;;;;;;5068831;28;8783;-72
2023/03/12 05:32:24;;;;;;;;;10.50;4.00;;;;;;;;5070268;28;9726;-72
2023/03/12 05:34:49;;;;;;;;;6.00;3.00;;;;;;;;5070350;28;8794;-72
2023/03/12 05:37:14;;;;;;;;;6.25;3.25;;;;;;;;5072185;28;8812;-72
2023/03/12 05:39:45;;;;;;;;;4.75;4.75;;;;;;;;5073703;28;8798;-72
2023/03/12 05:42:11;;;;;;;;;3.25;1.75;;;;;;;;5072426;28;8782;-72
2023/03/12 05:44:36;;;;;;;;;6.25;3.50;;;;;;;;5073730;28;9790;-72
2023/03/12 05:47:01;;;;;;;;;6.50;4.00;;;;;;;;5073354;28;8825;-72
2023/03/12 05:49:26;;;;;;;;;8.00;4.25;;;;;;;;5073388;28;8869;-72
2023/03/12 05:51:51;;;;;;;;;11.75;3.75;;;;;;;;5072297;28;9898;-72
2023/03/12 05:54:17;;;;;;;;;7.50;4.00;;;;;;;;5073565;28;8790;-72
2023/03/12 05:56:42;;;;;;;;;6.25;6.00;;;;;;;;5073721;28;9330;-72
2023/03/12 05:59:09;;;;;;;;;3.75;2.75;;;;;;;;5073483;28;8790;-73
2023/03/12 06:01:34;;;;;;;;;6.00;4.25;;;;;;;;5073239;28;8781;-72
2023/03/12 06:04:00;;;;;;;;;3.00;3.00;;;;;;;;5073423;28;9726;-72
2023/03/12 06:06:25;;;;;;;;;6.50;4.25;;;;;;;;5069572;28;8805;-72
2023/03/12 06:08:51;;;;;;;;;12.75;6.50;;;;;;;;5053106;28;8921;-72
2023/03/12 06:11:16;;;;;;;;;6.50;4.50;;;;;;;;5052000;28;9315;-73
2023/03/12 06:13:42;;;;;;;;;6.25;3.50;;;;;;;;5053056;28;8773;-72
2023/03/12 06:16:14;;;;;;;;;6.50;3.00;;;;;;;;5069131;28;8913;-72
2023/03/12 06:18:40;;;;;;;;;5.25;4.00;;;;;;;;5052818;28;8871;-72
2023/03/12 06:21:12;;;;;;;;;3.50;3.50;;;;;;;;5069684;28;10533;-73
2023/03/12 06:23:38;;;;;;;;;6.25;4.25;;;;;;;;5071192;28;8793;-72
2023/03/12 06:26:03;;;;;;;;;2.00;2.00;;;;;;;;5072440;28;9731;-72
2023/03/12 06:28:28;;;;;;;;;6.75;3.50;;;;;;;;5072957;28;8792;-72
2023/03/12 06:30:54;;;;;;;;;3.00;2.75;;;;;;;;5072223;28;8778;-72
2023/03/12 06:33:19;;;;;;;;;6.50;4.00;;;;;;;;5072938;28;8798;-72
2023/03/12 06:35:45;;;;;;;;;8.50;4.75;;;;;;;;5071615;28;8794;-72
2023/03/12 06:38:10;;;;;;;;;5.50;3.25;;;;;;;;5072821;28;8786;-72
2023/03/12 06:40:35;;;;;;;;;5.75;3.50;;;;;;;;5072739;28;8802;-72
2023/03/12 06:43:00;;;;;;;;;6.25;4.50;;;;;;;;5073086;28;8794;-72
2023/03/12 06:45:25;;;;;;;;;7.25;4.50;;;;;;;;5072691;28;8806;-72
2023/03/12 06:47:51;;;;;;;;;5.75;3.50;;;;;;;;5072971;28;8805;-72
2023/03/12 06:50:16;;;;;;;;;6.00;5.00;;;;;;;;5072732;28;8786;-72
2023/03/12 06:52:41;;;;;;;;;5.75;4.50;;;;;;;;5072545;28;8802;-72
2023/03/12 06:55:07;;;;;;;;;9.75;6.00;;;;;;;;5073006;28;8786;-72
2023/03/12 06:57:32;;;;;;;;;5.00;5.00;;;;;;;;5073938;28;8782;-72
2023/03/12 06:59:57;;;;;;;;;9.00;4.00;;;;;;;;5073433;28;8929;-72
2023/03/12 07:02:22;;;;;;;;;11.00;3.25;;;;;;;;5072560;28;8880;-72
2023/03/12 07:04:47;;;;;;;;;4.75;4.75;;;;;;;;5072315;28;8947;-72
2023/03/12 07:07:13;;;;;;;;;7.25;5.75;;;;;;;;5072267;28;8790;-72
2023/03/12 07:09:38;;;;;;;;;6.75;4.25;;;;;;;;5072048;28;8778;-72
2023/03/12 07:12:03;;;;;;;;;7.00;5.75;;;;;;;;5071868;28;8896;-72
2023/03/12 07:14:28;;;;;;;;;8.50;4.00;;;;;;;;5071788;28;8797;-72
2023/03/12 07:16:54;;;;;;;;;6.50;5.50;;;;;;;;5072019;28;9580;-72
2023/03/12 07:19:20;;;;;;;;;7.75;5.50;;;;;;;;5072112;28;8809;-72
2023/03/12 07:21:45;;;;;;;;;5.25;3.50;;;;;;;;5072122;28;9854;-72
2023/03/12 07:24:10;;;;;;;;;5.00;3.00;;;;;;;;5071959;28;8863;-72
2023/03/12 07:26:35;;;;;;;;;4.50;3.75;;;;;;;;5072153;28;8806;-72
2023/03/12 07:29:01;;;;;;;;;5.75;5.75;;;;;;;;5071919;28;8828;-72
2023/03/12 07:31:27;;;;;;;;;8.00;5.25;;;;;;;;5072038;28;8915;-72
2023/03/12 07:33:52;;;;;;;;;4.50;3.25;;;;;;;;5072016;28;9693;-72
2023/03/12 07:36:17;;;;;;;;;9.50;7.00;;;;;;;;5070629;28;8816;-72
2023/03/12 07:38:42;;;;;;;;;12.75;7.50;;;;;;;;5071464;28;8786;-72
2023/03/12 07:41:07;;;;;;;;;7.25;3.75;;;;;;;;5071647;28;8798;-72
2023/03/12 07:43:33;;;;;;;;;6.00;4.00;;;;;;;;5071545;28;8802;-78
2023/03/12 07:45:58;;;;;;;;;9.25;6.75;;;;;;;;5071077;28;8801;-72
2023/03/12 07:48:23;;;;;;;;;7.50;6.00;;;;;;;;5071484;28;8759;-72
2023/03/12 07:50:48;;;;;;;;;6.25;6.00;;;;;;;;5071352;28;8786;-72
2023/03/12 07:53:14;;;;;;;;;10.00;7.50;;;;;;;;5071482;28;8798;-72
2023/03/12 07:55:39;;;;;;;;;7.75;6.25;;;;;;;;5071257;28;8794;-73
2023/03/12 07:58:04;;;;;;;;;5.00;4.00;;;;;;;;5071322;28;8786;-72
2023/03/12 08:00:30;;;;;;;;;5.50;5.50;;;;;;;;5070724;28;8811;-72
2023/03/12 08:02:55;;;;;;;;;8.25;4.75;;;;;;;;5071347;28;8794;-72
2023/03/12 08:05:23;;;;;;;;;8.75;3.50;;;;;;;;5071582;28;8786;-72
2023/03/12 08:07:48;;;;;;;;;4.50;2.00;;;;;;;;5071597;28;8792;-72
2023/03/12 08:10:14;;;;;;;;;8.75;4.25;;;;;;;;5071421;28;9701;-72
2023/03/12 08:12:39;;;;;;;;;5.25;4.00;;;;;;;;5071250;28;8782;-72
2023/03/12 08:15:05;;;;;;;;;3.25;2.00;;;;;;;;5071672;28;8809;-72
2023/03/12 08:17:30;;;;;;;;;10.25;7.25;;;;;;;;5070295;28;8839;-71
2023/03/12 08:19:55;;;;;;;;;8.25;5.75;;;;;;;;5071364;28;8852;-72
2023/03/12 08:22:20;;;;;;;;;5.25;4.00;;;;;;;;5071121;28;9596;-72
2023/03/12 08:24:46;;;;;;;;;5.50;3.00;;;;;;;;5071190;28;8778;-72
2023/03/12 08:27:11;;;;;;;;;8.50;5.50;;;;;;;;5071041;28;8806;-73
2023/03/12 08:29:36;;;;;;;;;6.25;5.00;;;;;;;;5069843;28;8823;-73
2023/03/12 08:32:02;;;;;;;;;6.00;3.75;;;;;;;;5071205;28;8778;-73
2023/03/12 08:34:27;;;;;;;;;7.50;5.25;;;;;;;;5071106;28;8782;-73
2023/03/12 08:36:52;;;;;;;;;6.50;5.00;;;;;;;;5071204;28;8806;-73
2023/03/12 08:39:17;;;;;;;;;8.25;2.75;;;;;;;;5060763;28;8796;-73
2023/03/12 08:41:42;;;;;;;;;4.00;4.00;;;;;;;;5066490;28;8868;-73
2023/03/12 08:44:08;;;;;;;;;7.25;3.25;;;;;;;;5071085;28;9560;-73
2023/03/12 08:46:33;;;;;;;;;5.00;3.75;;;;;;;;5070736;28;8814;-72
2023/03/12 08:48:59;;;;;;;;;3.00;3.00;;;;;;;;5070839;28;8884;-72
2023/03/12 08:51:24;;;;;;;;;5.75;5.25;;;;;;;;5070679;28;9667;-72
2023/03/12 08:53:49;;;;;;;;;5.00;4.00;;;;;;;;5070823;28;8802;-72
2023/03/12 08:56:14;;;;;;;;;5.75;4.50;;;;;;;;5070559;28;8871;-72
2023/03/12 08:58:40;;;;;;;;;5.25;3.75;;;;;;;;5069316;28;8829;-71
2023/03/12 09:01:09;;;;;;;;;7.00;5.00;;;;;;;;5070527;28;8856;-73
2023/03/12 09:03:34;;;;;;;;;5.25;3.00;;;;;;;;5070702;28;8762;-73
2023/03/12 09:06:04;;;;;;;;;7.00;4.00;;;;;;;;5070690;28;9723;-73
2023/03/12 09:08:29;;;;;;;;;9.25;4.75;;;;;;;;5069276;28;8920;-74
2023/03/12 09:10:55;;;;;;;;;9.50;3.75;;;;;;;;5070343;28;9809;-73
2023/03/12 09:13:20;;;;;;;;;8.00;5.00;;;;;;;;5073679;28;8794;-73
2023/03/12 09:15:45;;;;;;;;;5.50;2.75;;;;;;;;5074148;28;8774;-73
2023/03/12 09:18:10;;;;;;;;;6.25;3.00;;;;;;;;5073501;28;8777;-73
2023/03/12 09:20:35;;;;;;;;;5.75;4.00;;;;;;;;5073944;28;9593;-73
2023/03/12 09:23:01;;;;;;;;;5.00;3.75;;;;;;;;5074173;28;8925;-73
2023/03/12 09:25:26;;;;;;;;;4.00;3.50;;;;;;;;5073815;28;8800;-73
2023/03/12 09:27:51;;;;;;;;;6.00;3.00;;;;;;;;5073733;28;8801;-73
2023/03/12 09:30:18;;;;;;;;;2.75;2.25;;;;;;;;5073684;28;8786;-73
2023/03/12 09:32:46;;;;;;;;;7.00;4.25;;;;;;;;5073603;28;8789;-73
2023/03/12 09:35:12;;;;;;;;;4.75;4.25;;;;;;;;5072750;28;9620;-72
2023/03/12 09:37:38;;;;;;;;;5.50;4.25;;;;;;;;5073460;28;9537;-73
2023/03/12 09:40:06;;;;;;;;;5.50;4.00;;;;;;;;5073510;28;9724;-73
2023/03/12 09:42:31;;;;;;;;;3.00;2.50;;;;;;;;5073692;28;8763;-72
2023/03/12 09:44:59;;;;;;;;;4.75;3.00;;;;;;;;5073704;28;9577;-72
2023/03/12 09:47:28;;;;;;;;;4.25;3.75;;;;;;;;5073611;28;8774;-73
2023/03/12 09:49:56;;;;;;;;;5.25;5.25;;;;;;;;5073731;28;9656;-74
2023/03/12 09:52:21;;;;;;;;;2.00;2.00;;;;;;;;5073062;28;9698;-73
2023/03/12 09:54:53;;;;;;;;;2.67;2.67;;;;;;;;5073402;28;9534;-73
2023/03/12 09:57:22;;;;;;;;;7.67;4.00;;;;;;;;5073141;28;8762;-72
2023/03/12 09:59:48;;;;;;;;;8.75;4.00;;;;;;;;5073203;28;9402;-73
2023/03/12 10:02:28;;;;;;;;;6.00;5.00;;;;;;;;5073009;28;9634;-72
2023/03/12 10:05:20;;;;;;;;;6.75;3.50;;;;;;;;5073514;28;11087;-72
2023/03/12 10:08:02;;;;;;;;;7.25;5.00;;;;;;;;5010774;28;9615;-73
2023/03/12 10:10:42;;;;;;;;;3.00;3.00;;;;;;;;5011734;28;9651;-72
2023/03/12 10:13:20;;;;;;;;;6.00;3.00;;;;;;;;5011520;28;9559;-72
2023/03/12 10:15:49;;;;;;;;;7.50;4.00;;;;;;;;5011634;28;9789;-73
2023/03/12 10:18:24;;;;;;;;;5.25;3.00;;;;;;;;5010682;28;9661;-72
2023/03/12 10:20:58;;;;;;;;;10.25;5.50;;;;;;;;5011489;28;9862;-73
2023/03/12 10:23:29;;;;;;;;;2.00;2.00;;;;;;;;5009981;28;9808;-75
2023/03/12 10:26:03;;;;;;;;;3.50;3.25;;;;;;;;5011739;28;9628;-73
2023/03/12 10:28:39;;;;;;;;;5.25;2.00;;;;;;;;5011594;28;9809;-73
2023/03/12 10:31:25;;;;;;;;;3.25;2.75;;;;;;;;5010757;28;9650;-73
2023/03/12 10:33:54;;;;;;;;;9.25;5.00;;;;;;;;5010410;28;9576;-72
2023/03/12 10:36:21;;;;;;;;;6.50;2.25;;;;;;;;5002428;28;9827;-73
2023/03/12 10:38:48;;;;;;;;;5.33;2.67;;;;;;;;4990945;28;9626;-72
2023/03/12 10:41:15;;;;;;;;;7.50;5.25;;;;;;;;4990428;28;9477;-74
2023/03/12 10:43:40;;;;;;;;;6.50;2.00;;;;;;;;4998938;28;9758;-72
2023/03/12 10:46:26;;;;;;;;;3.75;3.50;;;;;;;;5051126;28;9770;-72
2023/03/12 10:49:11;;;;;;;;;5.00;2.75;;;;;;;;5052260;28;8753;-72
2023/03/12 10:51:52;;;;;;;;;2.75;2.00;;;;;;;;5052457;28;9543;-73
2023/03/12 10:54:21;;;;;;;;;4.25;2.50;;;;;;;;5052431;28;9621;-72
2023/03/12 10:56:48;;;;;;;;;8.00;3.00;;;;;;;;5052365;28;9651;-73
2023/03/12 10:59:19;;;;;;;;;2.75;2.75;;;;;;;;5052468;28;9726;-73
2023/03/12 11:01:47;;;;;;;;;9.50;6.00;;;;;;;;5052320;28;9876;-72
2023/03/12 11:04:22;;;;;;;;;4.25;4.00;;;;;;;;5052929;28;9563;-74
2023/03/12 11:07:05;;;;;;;;;6.67;2.00;;;;;;;;5053027;28;9578;-73
2023/03/12 11:09:31;;;;;;;;;6.25;3.25;;;;;;;;5052242;28;9806;-73
2023/03/12 11:11:56;;;;;;;;;5.67;2.00;;;;;;;;5051103;28;9640;-73
2023/03/12 11:14:23;;;;;;;;;6.75;6.25;;;;;;;;5052452;28;8785;-72
2023/03/12 11:16:49;;;;;;;;;7.25;4.25;;;;;;;;5050735;28;9622;-73
2023/03/12 11:19:30;;;;;;;;;6.00;4.00;;;;;;;;5053307;28;9783;-73
2023/03/12 11:21:56;;;;;;;;;3.50;3.25;;;;;;;;5072239;28;9810;-72
2023/03/12 11:24:22;;;;;;;;;9.75;5.00;;;;;;;;5072672;28;9630;-72
2023/03/12 11:26:58;;;;;;;;;7.00;7.00;;;;;;;;5071575;28;9637;-71
2023/03/12 11:29:31;;;;;;;;;5.75;5.75;;;;;;;;5071219;28;9566;-72
2023/03/12 11:32:16;;;;;;;;;6.25;2.25;;;;;;;;5069428;28;9841;-72
2023/03/12 11:34:41;;;;;;;;;4.00;4.00;;;;;;;;5070117;28;9631;-71
2023/03/12 11:37:09;;;;;;;;;2.00;2.00;;;;;;;;5071426;28;9481;-71
2023/03/12 11:39:53;;;;;;;;;7.00;2.67;;;;;;;;5070433;28;8789;-71
2023/03/12 11:42:30;;;;;;;;;5.25;2.75;;;;;;;;5071434;28;9451;-71
2023/03/12 11:45:17;;;;;;;;;3.33;3.33;;;;;;;;5071678;28;9540;-72
2023/03/12 11:48:03;;;;;;;;;4.33;3.00;;;;;;;;5071788;28;9687;-72
2023/03/12 11:50:49;;;;;;;;;2.67;2.00;;;;;;;;5060838;28;9467;-72
2023/03/12 11:53:32;;;;;;;;;9.25;4.00;;;;;;;;5071235;28;10423;-73
2023/03/12 11:56:10;;;;;;;;;2.67;2.33;;;;;;;;5071484;28;9569;-73
2023/03/12 11:58:38;;;;;;;;;4.67;4.33;;;;;;;;5071972;28;9383;-72
2023/03/12 12:01:08;;;;;;;;;5.67;5.00;;;;;;;;5069965;28;9546;-72
2023/03/12 12:03:33;;;;;;;;;4.67;2.00;;;;;;;;5071237;28;9550;-72
2023/03/12 12:06:01;;;;;;;;;2.00;2.00;;;;;;;;5056176;28;9580;-72
2023/03/12 12:08:50;;;;;;;;;2.00;1.00;;;;;;;;5051277;28;8875;-72
2023/03/12 12:11:30;;;;;;;;;4.00;3.00;;;;;;;;5051243;28;9408;-72
2023/03/12 12:14:04;;;;;;;;;3.00;1.33;;;;;;;;5051417;28;9766;-72
2023/03/12 12:16:30;;;;;;;;;8.25;4.75;;;;;;;;5051539;28;9472;-71
2023/03/12 12:18:55;;;;;;;;;5.33;3.67;;;;;;;;5051111;28;9496;-72
2023/03/12 12:21:20;;;;;;;;;3.00;1.75;;;;;;;;5070390;28;8782;-72
2023/03/12 12:23:45;;;;;;;;;6.67;2.00;;;;;;;;5071582;28;8901;-72
2023/03/12 12:26:36;;;;;;;;;3.33;1.00;;;;;;;;5071154;28;8814;-72
2023/03/12 12:29:18;;;;;;;;;2.00;2.00;;;;;;;;5068219;28;8778;-72
2023/03/12 12:31:54;;;;;;;;;0.33;0.33;;;;;;;;5071103;28;10191;-72
2023/03/12 12:34:44;;;;;;;;;3.00;0.67;;;;;;;;5071167;28;9398;-73
2023/03/12 12:37:28;;;;;;;;;5.33;2.33;;;;;;;;5071850;28;9419;-73
2023/03/12 12:40:10;;;;;;;;;2.00;2.00;;;;;;;;5070926;28;9434;-73
2023/03/12 12:42:40;;;;;;;;;2.33;2.00;;;;;;;;5071151;28;10250;-73
2023/03/12 12:45:06;;;;;;;;;2.00;2.00;;;;;;;;5070907;28;9430;-73
2023/03/12 12:47:36;;;;;;;;;5.33;2.67;;;;;;;;5057919;28;9544;-73
2023/03/12 12:50:02;;;;;;;;;5.00;3.00;;;;;;;;5050944;28;9563;-73
2023/03/12 12:52:27;;;;;;;;;3.33;2.33;;;;;;;;5051145;28;9319;-73
2023/03/12 12:54:55;;;;;;;;;3.67;2.00;;;;;;;;5050719;28;9442;-73
2023/03/12 12:57:34;;;;;;;;;3.33;1.67;;;;;;;;5050773;28;9396;-73
2023/03/12 13:00:18;;;;;;;;;5.00;1.00;;;;;;;;5050582;28;9371;-73
2023/03/12 13:02:46;;;;;;;;;2.33;1.67;;;;;;;;5058861;28;9479;-73
2023/03/12 13:05:17;;;;;;;;;1.00;1.00;;;;;;;;5069198;28;9397;-73
2023/03/12 13:07:42;;;;;;;;;3.33;2.00;;;;;;;;5069586;28;9403;-73
2023/03/12 13:10:28;;;;;;;;;3.25;1.50;;;;;;;;5070057;28;9325;-78
2023/03/12 13:12:54;;;;;;;;;3.00;2.00;;;;;;;;5069568;28;8782;-73
2023/03/12 13:15:29;;;;;;;;;4.00;3.00;;;;;;;;5070092;28;9424;-72
2023/03/12 13:17:54;;;;;;;;;6.00;2.67;;;;;;;;5068496;28;9603;-72
2023/03/12 13:20:20;;;;;;;;;3.00;2.00;;;;;;;;5069117;28;9488;-72
2023/03/12 13:22:48;;;;;;;;;2.00;1.00;;;;;;;;5069752;28;8785;-71
2023/03/12 13:25:32;;;;;;;;;0.33;0.33;;;;;;;;5070092;28;9373;-72
2023/03/12 13:28:17;;;;;;;;;3.33;1.00;;;;;;;;5069886;28;9432;-72
2023/03/12 13:30:48;;;;;;;;;3.00;3.00;;;;;;;;5069544;28;9191;-73
2023/03/12 13:33:14;;;;;;;;;2.33;1.33;;;;;;;;5070411;28;9413;-74
2023/03/12 13:35:40;;;;;;;;;4.33;2.67;;;;;;;;5070059;28;9489;-73
2023/03/12 13:38:11;;;;;;;;;2.33;1.67;;;;;;;;5069785;28;9465;-76
2023/03/12 13:40:36;;;;;;;;;3.00;2.00;;;;;;;;5070302;28;8798;-76
2023/03/12 13:43:01;;;;;;;;;2.67;2.67;;;;;;;;5070455;28;9351;-75
2023/03/12 13:45:29;;;;;;;;;5.67;3.00;;;;;;;;5070282;28;8789;-75
2023/03/12 13:47:57;;;;;;;;;3.67;2.67;;;;;;;;5069930;28;8810;-75
2023/03/12 13:50:23;;;;;;;;;4.67;1.67;;;;;;;;5070317;28;9465;-75
2023/03/12 13:52:55;;;;;;;;;5.00;2.00;;;;;;;;5069441;28;9495;-74
2023/03/12 13:55:23;;;;;;;;;6.33;4.00;;;;;;;;5071625;28;8810;-74
2023/03/12 13:57:52;;;;;;;;;1.33;1.33;;;;;;;;5072507;28;9475;-75
2023/03/12 14:00:34;;;;;;;;;4.75;4.00;;;;;;;;5074332;28;9454;-73
2023/03/12 14:03:02;;;;;;;;;1.00;1.00;;;;;;;;5073793;28;9608;-74
2023/03/12 14:05:28;;;;;;;;;1.00;1.00;;;;;;;;5073610;28;9385;-74
2023/03/12 14:08:14;;;;;;;;;5.33;2.00;;;;;;;;5073682;28;10291;-74
2023/03/12 14:10:39;;;;;;;;;2.33;1.33;;;;;;;;5072632;28;9581;-74
2023/03/12 14:13:24;;;;;;;;;5.75;3.50;;;;;;;;5065731;28;9730;-73
2023/03/12 14:16:04;;;;;;;;;2.67;2.67;;;;;;;;5041778;28;8812;-74
2023/03/12 14:18:32;;;;;;;;;3.00;3.00;;;;;;;;5053604;28;9603;-74
2023/03/12 14:20:59;;;;;;;;;4.00;2.67;;;;;;;;5069038;28;9473;-77
2023/03/12 14:23:27;;;;;;;;;4.00;1.00;;;;;;;;5073277;28;9407;-75
2023/03/12 14:25:56;;;;;;;;;3.00;2.33;;;;;;;;5072041;28;9437;-76
2023/03/12 14:28:22;;;;;;;;;3.75;2.75;;;;;;;;5072184;28;9561;-75
2023/03/12 14:30:59;;;;;;;;;4.25;3.00;;;;;;;;5072860;28;10329;-76
2023/03/12 14:33:26;;;;;;;;;2.00;0.67;;;;;;;;5071377;28;9650;-76
2023/03/12 14:36:03;;;;;;;;;2.50;1.25;;;;;;;;5072826;28;9395;-76
2023/03/12 14:38:33;;;;;;;;;3.00;2.00;;;;;;;;5073332;28;9555;-76
2023/03/12 14:41:12;;;;;;;;;1.33;1.00;;;;;;;;5072569;28;9611;-72
2023/03/12 14:43:38;;;;;;;;;4.00;2.00;;;;;;;;5071732;28;9539;-74
2023/03/12 14:46:04;;;;;;;;;3.00;2.00;;;;;;;;5072867;28;9558;-73
2023/03/12 14:48:30;;;;;;;;;3.67;1.00;;;;;;;;5072733;28;10471;-73
2023/03/12 14:50:57;;;;;;;;;2.00;2.00;;;;;;;;5072717;28;9401;-73
2023/03/12 14:53:27;;;;;;;;;5.25;1.00;;;;;;;;5072650;28;9523;-73
2023/03/12 14:55:59;;;;;;;;;2.25;2.25;;;;;;;;5072702;28;9614;-73
2023/03/12 14:58:24;;;;;;;;;4.25;3.50;;;;;;;;5071776;28;9657;-74